createdAt,value
2022-12-29T00:02:51.485Z,4.68
2022-12-29T00:07:56.199Z,4.67
2022-12-29T00:13:18.708Z,4.67
2022-12-29T00:18:22.238Z,4.74
2022-12-29T00:23:46.450Z,4.76
2022-12-29T00:29:10.488Z,4.75
2022-12-29T00:34:32.795Z,4.73
2022-12-29T00:39:55.298Z,4.76
2022-12-29T00:44:58.680Z,4.74
2022-12-29T00:50:02.494Z,4.70
2022-12-29T00:55:06.792Z,4.67
2022-12-29T01:00:13.060Z,4.63
2022-12-29T01:05:19.008Z,4.61
2022-12-29T01:10:22.635Z,4.60
2022-12-29T01:15:26.792Z,4.62
2022-12-29T01:20:31.096Z,4.61
2022-12-29T01:25:34.696Z,4.59
2022-12-29T01:30:37.655Z,4.59
2022-12-29T01:35:40.687Z,4.58
2022-12-29T01:40:46.999Z,4.64
2022-12-29T01:45:55.686Z,4.65
2022-12-29T01:50:59.536Z,4.61
2022-12-29T01:56:07.167Z,4.55
2022-12-29T02:01:10.212Z,4.52
2022-12-29T02:06:25.317Z,4.54
2022-12-29T02:11:30.580Z,4.56
2022-12-29T02:17:10.099Z,4.65
2022-12-29T02:22:24.552Z,4.66
2022-12-29T02:27:58.144Z,4.64
2022-12-29T02:33:23.611Z,4.67
2022-12-29T02:38:44.514Z,4.69
2022-12-29T02:43:58.019Z,4.72
2022-12-29T02:49:20.610Z,4.67
2022-12-29T02:54:41.640Z,4.65
2022-12-29T02:59:46.327Z,4.67
2022-12-29T03:05:11.172Z,4.66
2022-12-29T03:10:35.894Z,4.61
2022-12-29T03:16:07.525Z,4.58
2022-12-29T03:21:44.413Z,4.58
2022-12-29T03:26:49.980Z,4.63
2022-12-29T03:31:54.789Z,4.62
2022-12-29T03:37:09.708Z,4.59
2022-12-29T03:42:18.940Z,4.58
2022-12-29T03:47:21.098Z,4.60
2022-12-29T03:52:24.147Z,4.56
2022-12-29T03:57:27.640Z,4.52
2022-12-29T04:02:31.259Z,4.54
2022-12-29T04:07:35.902Z,4.53
2022-12-29T04:12:38.933Z,4.53
2022-12-29T04:17:41.629Z,4.58
2022-12-29T04:22:44.772Z,4.67
2022-12-29T04:27:48.068Z,4.70
2022-12-29T04:32:50.836Z,4.68
2022-12-29T04:37:54.227Z,4.69
2022-12-29T04:42:57.657Z,4.69
2022-12-29T04:48:00.401Z,4.70
2022-12-29T04:53:06.203Z,4.73
2022-12-29T04:58:09.381Z,4.76
2022-12-29T05:03:12.485Z,4.79
2022-12-29T05:08:16.084Z,4.79
2022-12-29T05:13:20.391Z,4.75
2022-12-29T05:18:24.184Z,4.77
2022-12-29T05:23:28.311Z,4.83
2022-12-29T05:28:32.976Z,4.85
2022-12-29T05:33:37.047Z,4.86
2022-12-29T05:38:40.215Z,4.85
2022-12-29T05:43:43.320Z,4.86
2022-12-29T05:48:46.630Z,4.94
2022-12-29T05:53:51.045Z,4.97
2022-12-29T05:58:54.974Z,4.98
2022-12-29T06:04:00.387Z,5.01
2022-12-29T06:09:04.690Z,5.07
2022-12-29T06:14:07.769Z,5.16
2022-12-29T06:19:13.074Z,5.18
2022-12-29T06:24:15.366Z,5.18
2022-12-29T06:29:21.073Z,5.11
2022-12-29T06:34:25.379Z,5.12
2022-12-29T06:39:28.586Z,5.13
2022-12-29T06:44:32.814Z,5.11
2022-12-29T06:49:37.916Z,5.07
2022-12-29T06:54:40.185Z,5.06
2022-12-29T06:59:42.162Z,5.08
2022-12-29T07:04:45.642Z,5.06
2022-12-29T07:09:51.315Z,5.08
2022-12-29T07:14:53.857Z,5.08
2022-12-29T07:19:55.991Z,5.14
2022-12-29T07:25:00.185Z,5.18
2022-12-29T07:30:03.559Z,5.19
2022-12-29T07:35:09.025Z,5.20
2022-12-29T07:40:13.227Z,5.22
2022-12-29T07:45:15.832Z,5.29
2022-12-29T07:50:17.820Z,5.38
2022-12-29T07:55:20.094Z,5.42
2022-12-29T08:00:23.747Z,5.46
2022-12-29T08:05:26.810Z,5.45
2022-12-29T08:10:30.547Z,5.49
2022-12-29T08:15:34.169Z,5.54
2022-12-29T08:20:38.127Z,5.59
2022-12-29T08:25:41.475Z,5.65
2022-12-29T08:30:45.645Z,5.77
2022-12-29T08:35:49.302Z,5.90
2022-12-29T08:40:52.679Z,5.94
2022-12-29T08:45:55.404Z,5.97
2022-12-29T08:50:58.461Z,5.97
2022-12-29T08:56:05.046Z,5.95
2022-12-29T09:01:11.279Z,5.97
2022-12-29T09:06:17.792Z,6.04
2022-12-29T09:11:24.835Z,6.11
2022-12-29T09:16:28.368Z,6.19
2022-12-29T09:21:31.672Z,6.25
2022-12-29T09:26:35.021Z,6.36
2022-12-29T09:31:39.610Z,6.54
2022-12-29T09:36:44.567Z,6.64
2022-12-29T09:42:15.943Z,6.78
2022-12-29T09:47:21.572Z,6.88
2022-12-29T09:52:30.739Z,6.93
2022-12-29T09:57:44.505Z,6.95
2022-12-29T10:02:58.079Z,7.02
2022-12-29T10:08:13.999Z,7.09
2022-12-29T10:13:38.267Z,7.18
2022-12-29T10:19:19.669Z,7.30
2022-12-29T10:24:25.209Z,7.44
2022-12-29T10:29:36.943Z,7.47
2022-12-29T10:34:51.101Z,7.47
2022-12-29T10:39:56.080Z,7.46
2022-12-29T10:45:01.187Z,7.47
2022-12-29T10:50:06.218Z,7.46
2022-12-29T10:55:17.164Z,7.49
2022-12-29T11:00:22.336Z,7.49
2022-12-29T11:05:36.108Z,7.42
2022-12-29T11:10:45.588Z,7.37
2022-12-29T11:15:52.117Z,7.37
2022-12-29T11:21:01.380Z,7.39
2022-12-29T11:26:07.675Z,7.48
2022-12-29T11:31:12.024Z,7.64
2022-12-29T11:36:22.085Z,7.69
2022-12-29T11:41:31.003Z,7.73
2022-12-29T11:46:39.729Z,7.81
2022-12-29T11:51:49.127Z,7.83
2022-12-29T11:56:52.383Z,7.85
2022-12-29T12:01:57.805Z,7.90
2022-12-29T12:07:11.421Z,7.97
2022-12-29T12:12:32.370Z,8.02
2022-12-29T12:17:59.714Z,8.04
2022-12-29T12:23:30.522Z,8.09
2022-12-29T12:28:59.995Z,8.13
2022-12-29T12:34:10.115Z,8.17
2022-12-29T12:39:44.481Z,8.21
2022-12-29T12:45:26.327Z,8.19
2022-12-29T12:50:42.652Z,8.20
2022-12-29T12:56:15.602Z,8.20
2022-12-29T13:01:51.933Z,8.20
2022-12-29T13:07:29.221Z,8.18
2022-12-29T13:12:58.892Z,8.21
2022-12-29T13:18:18.955Z,8.19
2022-12-29T13:23:35.224Z,8.19
2022-12-29T13:29:07.475Z,8.18
2022-12-29T13:34:26.327Z,8.18
2022-12-29T13:39:50.597Z,8.23
2022-12-29T13:45:07.366Z,8.33
2022-12-29T13:50:24.476Z,8.38
2022-12-29T13:55:50.973Z,8.39
2022-12-29T14:01:02.346Z,8.38
2022-12-29T14:06:17.525Z,8.38
2022-12-29T14:11:28.762Z,8.39
2022-12-29T14:16:36.423Z,8.40
2022-12-29T14:21:39.081Z,8.36
2022-12-29T14:26:43.024Z,8.29
2022-12-29T14:31:47.015Z,8.24
2022-12-29T14:36:58.038Z,8.21
2022-12-29T14:42:02.675Z,8.18
2022-12-29T14:47:09.920Z,8.20
2022-12-29T14:52:24.053Z,8.15
2022-12-29T14:57:42.491Z,8.11
2022-12-29T15:03:09.759Z,8.08
2022-12-29T15:08:19.481Z,8.03
2022-12-29T15:13:33.542Z,8.01
2022-12-29T15:18:41.201Z,8.05
2022-12-29T15:23:47.337Z,8.04
2022-12-29T15:28:55.360Z,8.01
2022-12-29T15:34:10.781Z,7.96
2022-12-29T15:39:29.176Z,7.88
2022-12-29T15:44:44.320Z,7.88
2022-12-29T15:49:54.405Z,7.92
2022-12-29T15:54:58.025Z,7.94
2022-12-29T16:00:01.954Z,7.90
2022-12-29T16:05:18.785Z,7.81
2022-12-29T16:10:30.977Z,7.76
2022-12-29T16:15:36.413Z,7.74
2022-12-29T16:20:44.655Z,7.66
2022-12-29T16:25:52.233Z,7.58
2022-12-29T16:31:16.275Z,7.48
2022-12-29T16:36:59.011Z,7.36
2022-12-29T16:42:23.655Z,7.34
2022-12-29T16:47:29.700Z,7.39
2022-12-29T16:52:35.724Z,7.41
2022-12-29T16:57:38.101Z,7.42
2022-12-29T17:02:45.543Z,7.42
2022-12-29T17:07:51.782Z,7.42
2022-12-29T17:12:54.593Z,7.46
2022-12-29T17:17:57.200Z,7.46
2022-12-29T17:23:00.029Z,7.45
2022-12-29T17:28:20.944Z,7.46
2022-12-29T17:33:23.417Z,7.52
2022-12-29T17:38:34.255Z,7.59
2022-12-29T17:43:37.330Z,7.60
2022-12-29T17:48:39.647Z,7.61
2022-12-29T17:53:42.134Z,7.64
2022-12-29T17:58:49.115Z,7.66
2022-12-29T18:03:52.300Z,7.71
2022-12-29T18:08:54.947Z,7.73
2022-12-29T18:13:57.404Z,7.70
2022-12-29T18:18:59.305Z,7.62
2022-12-29T18:24:01.873Z,7.56
2022-12-29T18:29:03.735Z,7.56
2022-12-29T18:34:17.783Z,7.58
2022-12-29T18:39:24.151Z,7.57
2022-12-29T18:44:30.588Z,7.52
2022-12-29T18:49:32.825Z,7.45
2022-12-29T18:54:36.099Z,7.40
2022-12-29T18:59:38.733Z,7.38
2022-12-29T19:04:42.804Z,7.42
2022-12-29T19:09:45.228Z,7.45
2022-12-29T19:14:49.118Z,7.48
2022-12-29T19:19:51.368Z,7.50
2022-12-29T19:24:59.774Z,7.51
2022-12-29T19:30:03.843Z,7.58
2022-12-29T19:35:07.265Z,7.60
2022-12-29T19:40:17.895Z,7.61
2022-12-29T19:45:21.900Z,7.62
2022-12-29T19:50:27.230Z,7.63
2022-12-29T19:55:31.895Z,7.68
2022-12-29T20:00:41.091Z,7.70
2022-12-29T20:05:50.606Z,7.73
2022-12-29T20:11:19.258Z,7.66
2022-12-29T20:16:21.631Z,7.57
2022-12-29T20:21:25.773Z,7.56
2022-12-29T20:26:30.054Z,7.54
2022-12-29T20:31:37.501Z,7.49
2022-12-29T20:36:43.876Z,7.36
2022-12-29T20:41:47.154Z,7.26
2022-12-29T20:46:50.532Z,7.20
2022-12-29T20:52:08.843Z,7.12
2022-12-29T20:57:11.951Z,7.08
2022-12-29T21:02:22.856Z,7.07
2022-12-29T21:07:25.863Z,7.05
2022-12-29T21:12:28.726Z,7.00
2022-12-29T21:17:30.982Z,6.94
2022-12-29T21:22:33.663Z,6.87
2022-12-29T21:27:37.166Z,6.81
2022-12-29T21:32:41.022Z,6.76
2022-12-29T21:37:43.784Z,6.72
2022-12-29T21:42:48.636Z,6.64
2022-12-29T21:48:11.126Z,6.61
2022-12-29T21:53:15.350Z,6.56
2022-12-29T21:58:37.770Z,6.48
2022-12-29T22:03:59.975Z,6.38
2022-12-29T22:09:22.092Z,6.30
2022-12-29T22:14:26.129Z,6.21
2022-12-29T22:19:29.817Z,6.17
2022-12-29T22:24:31.947Z,6.12
2022-12-29T22:29:35.369Z,6.04
2022-12-29T22:34:38.817Z,5.95
2022-12-29T22:39:41.062Z,5.87
2022-12-29T22:44:43.902Z,5.82
2022-12-29T22:49:45.975Z,5.76
2022-12-29T22:54:48.041Z,5.69
2022-12-29T22:59:50.555Z,5.64
2022-12-29T23:05:03.704Z,5.59
2022-12-29T23:10:07.309Z,5.56
2022-12-29T23:15:10.175Z,5.49
2022-12-29T23:20:13.404Z,5.48
2022-12-29T23:25:18.231Z,5.47
2022-12-29T23:30:20.802Z,5.45
2022-12-29T23:35:24.900Z,5.38
2022-12-29T23:40:28.475Z,5.35
2022-12-29T23:45:34.988Z,5.33
2022-12-29T23:50:42.113Z,5.35
2022-12-29T23:55:54.296Z,5.34
